sensor_id;sensor_type;location;lat;lon;timestamp;P1;durP1;ratioP1;P2;durP2;ratioP2
47009;SDS011;59230;54.164;-3.124;2023-11-21T00:01:04;2.22;;;0.70;;
47009;SDS011;59230;54.164;-3.124;2023-11-21T00:03:30;2.42;;;0.60;;
47009;SDS011;59230;54.164;-3.124;2023-11-21T00:05:58;3.03;;;0.60;;
47009;SDS011;59230;54.164;-3.124;2023-11-21T00:08:24;1.75;;;0.77;;
47009;SDS011;59230;54.164;-3.124;2023-11-21T00:10:52;6.43;;;0.80;;
47009;SDS011;59230;54.164;-3.124;2023-11-21T00:13:17;1.25;;;0.40;;
47009;SDS011;59230;54.164;-3.124;2023-11-21T00:15:43;5.10;;;0.52;;
47009;SDS011;59230;54.164;-3.124;2023-11-21T00:18:12;5.47;;;0.88;;
47009;SDS011;59230;54.164;-3.124;2023-11-21T00:20:40;1.23;;;0.50;;
47009;SDS011;59230;54.164;-3.124;2023-11-21T00:23:08;3.47;;;0.60;;
47009;SDS011;59230;54.164;-3.124;2023-11-21T00:25:37;2.25;;;0.65;;
47009;SDS011;59230;54.164;-3.124;2023-11-21T00:28:04;3.33;;;0.50;;
47009;SDS011;59230;54.164;-3.124;2023-11-21T00:30:31;3.90;;;0.70;;
47009;SDS011;59230;54.164;-3.124;2023-11-21T00:32:59;1.80;;;0.60;;
47009;SDS011;59230;54.164;-3.124;2023-11-21T00:35:24;2.80;;;0.60;;
47009;SDS011;59230;54.164;-3.124;2023-11-21T00:37:51;1.77;;;0.60;;
47009;SDS011;59230;54.164;-3.124;2023-11-21T00:40:17;1.42;;;0.77;;
47009;SDS011;59230;54.164;-3.124;2023-11-21T00:42:48;3.63;;;0.45;;
47009;SDS011;59230;54.164;-3.124;2023-11-21T00:45:16;3.20;;;0.65;;
47009;SDS011;59230;54.164;-3.124;2023-11-21T00:47:42;3.35;;;0.60;;
47009;SDS011;59230;54.164;-3.124;2023-11-21T00:50:08;1.17;;;0.50;;
47009;SDS011;59230;54.164;-3.124;2023-11-21T00:52:35;1.75;;;0.45;;
47009;SDS011;59230;54.164;-3.124;2023-11-21T00:55:04;1.13;;;0.60;;
47009;SDS011;59230;54.164;-3.124;2023-11-21T00:57:33;1.15;;;0.50;;
47009;SDS011;59230;54.164;-3.124;2023-11-21T01:00:02;0.90;;;0.45;;
47009;SDS011;59230;54.164;-3.124;2023-11-21T01:02:34;1.23;;;0.50;;
47009;SDS011;59230;54.164;-3.124;2023-11-21T01:05:02;1.42;;;0.47;;
47009;SDS011;59230;54.164;-3.124;2023-11-21T01:07:30;0.70;;;0.38;;
47009;SDS011;59230;54.164;-3.124;2023-11-21T01:09:58;1.65;;;0.52;;
47009;SDS011;59230;54.164;-3.124;2023-11-21T01:12:26;0.70;;;0.43;;
47009;SDS011;59230;54.164;-3.124;2023-11-21T01:14:52;0.55;;;0.40;;
47009;SDS011;59230;54.164;-3.124;2023-11-21T01:17:20;3.03;;;0.60;;
47009;SDS011;59230;54.164;-3.124;2023-11-21T01:19:48;0.85;;;0.50;;
47009;SDS011;59230;54.164;-3.124;2023-11-21T01:22:15;2.17;;;0.52;;
47009;SDS011;59230;54.164;-3.124;2023-11-21T01:24:42;1.90;;;0.50;;
47009;SDS011;59230;54.164;-3.124;2023-11-21T01:27:08;1.48;;;0.50;;
47009;SDS011;59230;54.164;-3.124;2023-11-21T01:29:35;4.03;;;0.60;;
47009;SDS011;59230;54.164;-3.124;2023-11-21T01:32:02;0.82;;;0.50;;
47009;SDS011;59230;54.164;-3.124;2023-11-21T01:34:30;2.75;;;0.50;;
47009;SDS011;59230;54.164;-3.124;2023-11-21T01:36:59;3.05;;;0.40;;
47009;SDS011;59230;54.164;-3.124;2023-11-21T01:39:29;1.42;;;0.55;;
47009;SDS011;59230;54.164;-3.124;2023-11-21T01:41:55;6.25;;;0.60;;
47009;SDS011;59230;54.164;-3.124;2023-11-21T01:44:26;1.25;;;0.57;;
47009;SDS011;59230;54.164;-3.124;2023-11-21T01:46:52;0.95;;;0.57;;
47009;SDS011;59230;54.164;-3.124;2023-11-21T01:49:19;1.77;;;0.60;;
47009;SDS011;59230;54.164;-3.124;2023-11-21T01:51:46;1.00;;;0.60;;
47009;SDS011;59230;54.164;-3.124;2023-11-21T01:54:18;1.10;;;0.50;;
47009;SDS011;59230;54.164;-3.124;2023-11-21T01:56:45;1.83;;;0.60;;
47009;SDS011;59230;54.164;-3.124;2023-11-21T01:59:11;1.15;;;0.50;;
47009;SDS011;59230;54.164;-3.124;2023-11-21T02:01:48;0.52;;;0.45;;
47009;SDS011;59230;54.164;-3.124;2023-11-21T02:04:16;0.75;;;0.50;;
47009;SDS011;59230;54.164;-3.124;2023-11-21T02:06:44;2.10;;;0.57;;
47009;SDS011;59230;54.164;-3.124;2023-11-21T02:09:09;0.93;;;0.50;;
47009;SDS011;59230;54.164;-3.124;2023-11-21T02:11:37;2.15;;;0.65;;
47009;SDS011;59230;54.164;-3.124;2023-11-21T02:14:04;1.13;;;0.60;;
47009;SDS011;59230;54.164;-3.124;2023-11-21T02:16:32;0.40;;;0.40;;
47009;SDS011;59230;54.164;-3.124;2023-11-21T02:19:02;0.63;;;0.45;;
47009;SDS011;59230;54.164;-3.124;2023-11-21T02:21:29;0.68;;;0.40;;
47009;SDS011;59230;54.164;-3.124;2023-11-21T02:23:56;1.40;;;0.60;;
47009;SDS011;59230;54.164;-3.124;2023-11-21T02:26:22;0.65;;;0.47;;
47009;SDS011;59230;54.164;-3.124;2023-11-21T02:28:48;11.20;;;0.60;;
47009;SDS011;59230;54.164;-3.124;2023-11-21T02:31:14;2.78;;;0.70;;
47009;SDS011;59230;54.164;-3.124;2023-11-21T02:33:40;3.33;;;0.80;;
47009;SDS011;59230;54.164;-3.124;2023-11-21T02:36:08;1.15;;;0.45;;
47009;SDS011;59230;54.164;-3.124;2023-11-21T02:38:37;6.13;;;0.88;;
47009;SDS011;59230;54.164;-3.124;2023-11-21T02:41:07;0.70;;;0.50;;
47009;SDS011;59230;54.164;-3.124;2023-11-21T02:43:33;2.67;;;0.70;;
47009;SDS011;59230;54.164;-3.124;2023-11-21T02:46:01;0.60;;;0.45;;
47009;SDS011;59230;54.164;-3.124;2023-11-21T02:48:31;1.65;;;0.45;;
47009;SDS011;59230;54.164;-3.124;2023-11-21T02:50:58;2.45;;;0.55;;
47009;SDS011;59230;54.164;-3.124;2023-11-21T02:53:23;1.05;;;0.40;;
47009;SDS011;59230;54.164;-3.124;2023-11-21T02:55:51;2.92;;;0.60;;
47009;SDS011;59230;54.164;-3.124;2023-11-21T02:58:18;1.30;;;0.50;;
47009;SDS011;59230;54.164;-3.124;2023-11-21T03:00:44;1.67;;;0.47;;
47009;SDS011;59230;54.164;-3.124;2023-11-21T03:03:09;0.50;;;0.40;;
47009;SDS011;59230;54.164;-3.124;2023-11-21T03:05:35;1.30;;;0.60;;
47009;SDS011;59230;54.164;-3.124;2023-11-21T03:08:03;0.80;;;0.55;;
47009;SDS011;59230;54.164;-3.124;2023-11-21T03:10:30;1.63;;;0.50;;
47009;SDS011;59230;54.164;-3.124;2023-11-21T03:12:56;4.68;;;0.68;;
47009;SDS011;59230;54.164;-3.124;2023-11-21T03:15:22;2.72;;;0.50;;
47009;SDS011;59230;54.164;-3.124;2023-11-21T03:17:49;2.40;;;0.70;;
47009;SDS011;59230;54.164;-3.124;2023-11-21T03:20:15;0.90;;;0.60;;
47009;SDS011;59230;54.164;-3.124;2023-11-21T03:22:42;2.88;;;0.50;;
47009;SDS011;59230;54.164;-3.124;2023-11-21T03:25:09;1.65;;;0.50;;
47009;SDS011;59230;54.164;-3.124;2023-11-21T03:27:36;2.70;;;0.60;;
47009;SDS011;59230;54.164;-3.124;2023-11-21T03:30:07;0.93;;;0.50;;
47009;SDS011;59230;54.164;-3.124;2023-11-21T03:32:34;0.82;;;0.50;;
47009;SDS011;59230;54.164;-3.124;2023-11-21T03:35:02;2.08;;;0.50;;
47009;SDS011;59230;54.164;-3.124;2023-11-21T03:37:28;1.95;;;0.60;;
47009;SDS011;59230;54.164;-3.124;2023-11-21T03:39:54;1.10;;;0.43;;
47009;SDS011;59230;54.164;-3.124;2023-11-21T03:42:22;1.67;;;0.60;;
47009;SDS011;59230;54.164;-3.124;2023-11-21T03:44:48;1.60;;;0.50;;
47009;SDS011;59230;54.164;-3.124;2023-11-21T03:47:14;2.05;;;0.60;;
47009;SDS011;59230;54.164;-3.124;2023-11-21T03:49:39;3.15;;;0.65;;
47009;SDS011;59230;54.164;-3.124;2023-11-21T03:52:06;0.95;;;0.50;;
47009;SDS011;59230;54.164;-3.124;2023-11-21T03:54:32;1.45;;;0.52;;
47009;SDS011;59230;54.164;-3.124;2023-11-21T03:56:58;2.40;;;0.60;;
47009;SDS011;59230;54.164;-3.124;2023-11-21T03:59:25;1.33;;;0.52;;
47009;SDS011;59230;54.164;-3.124;2023-11-21T04:01:54;2.00;;;0.60;;
47009;SDS011;59230;54.164;-3.124;2023-11-21T04:04:26;1.70;;;0.50;;
47009;SDS011;59230;54.164;-3.124;2023-11-21T04:06:53;1.35;;;0.50;;
47009;SDS011;59230;54.164;-3.124;2023-11-21T04:09:19;2.08;;;0.60;;
47009;SDS011;59230;54.164;-3.124;2023-11-21T04:11:45;0.60;;;0.47;;
47009;SDS011;59230;54.164;-3.124;2023-11-21T04:14:13;1.40;;;0.57;;
47009;SDS011;59230;54.164;-3.124;2023-11-21T04:16:41;1.95;;;0.52;;
47009;SDS011;59230;54.164;-3.124;2023-11-21T04:19:08;2.05;;;0.60;;
47009;SDS011;59230;54.164;-3.124;2023-11-21T04:21:41;1.33;;;0.60;;
47009;SDS011;59230;54.164;-3.124;2023-11-21T04:24:10;1.75;;;0.60;;
47009;SDS011;59230;54.164;-3.124;2023-11-21T04:26:35;0.90;;;0.50;;
47009;SDS011;59230;54.164;-3.124;2023-11-21T04:29:04;1.25;;;0.52;;
47009;SDS011;59230;54.164;-3.124;2023-11-21T04:31:30;1.83;;;0.60;;
47009;SDS011;59230;54.164;-3.124;2023-11-21T04:33:56;1.75;;;0.60;;
47009;SDS011;59230;54.164;-3.124;2023-11-21T04:36:23;2.00;;;0.50;;
47009;SDS011;59230;54.164;-3.124;2023-11-21T04:38:49;5.75;;;0.63;;
47009;SDS011;59230;54.164;-3.124;2023-11-21T04:41:14;3.33;;;0.57;;
47009;SDS011;59230;54.164;-3.124;2023-11-21T04:43:43;0.70;;;0.40;;
47009;SDS011;59230;54.164;-3.124;2023-11-21T04:46:08;3.20;;;0.60;;
47009;SDS011;59230;54.164;-3.124;2023-11-21T04:48:34;0.68;;;0.50;;
47009;SDS011;59230;54.164;-3.124;2023-11-21T04:50:59;2.63;;;0.60;;
47009;SDS011;59230;54.164;-3.124;2023-11-21T04:53:25;1.58;;;0.50;;
47009;SDS011;59230;54.164;-3.124;2023-11-21T04:55:52;2.47;;;0.60;;
47009;SDS011;59230;54.164;-3.124;2023-11-21T04:58:18;1.45;;;0.50;;
47009;SDS011;59230;54.164;-3.124;2023-11-21T05:00:46;2.65;;;0.60;;
47009;SDS011;59230;54.164;-3.124;2023-11-21T05:03:11;0.55;;;0.40;;
47009;SDS011;59230;54.164;-3.124;2023-11-21T05:05:37;1.48;;;0.55;;
47009;SDS011;59230;54.164;-3.124;2023-11-21T05:08:07;1.35;;;0.40;;
47009;SDS011;59230;54.164;-3.124;2023-11-21T05:10:34;0.95;;;0.60;;
47009;SDS011;59230;54.164;-3.124;2023-11-21T05:13:05;1.55;;;0.52;;
47009;SDS011;59230;54.164;-3.124;2023-11-21T05:15:35;2.00;;;0.50;;
47009;SDS011;59230;54.164;-3.124;2023-11-21T05:18:04;0.88;;;0.50;;
47009;SDS011;59230;54.164;-3.124;2023-11-21T05:20:32;2.95;;;0.40;;
47009;SDS011;59230;54.164;-3.124;2023-11-21T05:22:58;1.35;;;0.50;;
47009;SDS011;59230;54.164;-3.124;2023-11-21T05:25:24;1.10;;;0.50;;
47009;SDS011;59230;54.164;-3.124;2023-11-21T05:27:51;1.83;;;0.50;;
47009;SDS011;59230;54.164;-3.124;2023-11-21T05:30:18;0.55;;;0.40;;
47009;SDS011;59230;54.164;-3.124;2023-11-21T05:32:45;0.52;;;0.40;;
47009;SDS011;59230;54.164;-3.124;2023-11-21T05:35:12;2.28;;;0.40;;
47009;SDS011;59230;54.164;-3.124;2023-11-21T05:37:42;1.98;;;0.50;;
47009;SDS011;59230;54.164;-3.124;2023-11-21T05:40:08;0.98;;;0.43;;
47009;SDS011;59230;54.164;-3.124;2023-11-21T05:42:37;2.85;;;0.73;;
47009;SDS011;59230;54.164;-3.124;2023-11-21T05:45:04;2.40;;;0.60;;
47009;SDS011;59230;54.164;-3.124;2023-11-21T05:47:39;0.90;;;0.50;;
47009;SDS011;59230;54.164;-3.124;2023-11-21T05:50:07;2.15;;;0.40;;
47009;SDS011;59230;54.164;-3.124;2023-11-21T05:52:44;4.05;;;0.60;;
47009;SDS011;59230;54.164;-3.124;2023-11-21T05:55:10;3.33;;;0.70;;
47009;SDS011;59230;54.164;-3.124;2023-11-21T05:57:36;3.38;;;0.70;;
47009;SDS011;59230;54.164;-3.124;2023-11-21T06:02:47;2.47;;;0.65;;
47009;SDS011;59230;54.164;-3.124;2023-11-21T06:05:19;2.88;;;0.60;;
47009;SDS011;59230;54.164;-3.124;2023-11-21T06:07:46;3.75;;;0.90;;
47009;SDS011;59230;54.164;-3.124;2023-11-21T06:10:11;2.15;;;0.73;;
47009;SDS011;59230;54.164;-3.124;2023-11-21T06:12:39;0.70;;;0.50;;
47009;SDS011;59230;54.164;-3.124;2023-11-21T06:15:09;8.27;;;0.70;;
47009;SDS011;59230;54.164;-3.124;2023-11-21T06:17:40;2.95;;;0.50;;
47009;SDS011;59230;54.164;-3.124;2023-11-21T06:20:08;3.80;;;0.80;;
47009;SDS011;59230;54.164;-3.124;2023-11-21T06:22:40;1.70;;;0.70;;
47009;SDS011;59230;54.164;-3.124;2023-11-21T06:25:08;2.53;;;0.80;;
47009;SDS011;59230;54.164;-3.124;2023-11-21T06:27:34;4.57;;;1.00;;
47009;SDS011;59230;54.164;-3.124;2023-11-21T06:30:07;4.80;;;1.15;;
47009;SDS011;59230;54.164;-3.124;2023-11-21T06:32:38;5.25;;;1.05;;
47009;SDS011;59230;54.164;-3.124;2023-11-21T06:35:06;4.43;;;1.10;;
47009;SDS011;59230;54.164;-3.124;2023-11-21T06:37:34;2.45;;;0.68;;
47009;SDS011;59230;54.164;-3.124;2023-11-21T06:40:00;10.80;;;0.90;;
47009;SDS011;59230;54.164;-3.124;2023-11-21T06:42:30;5.20;;;0.85;;
47009;SDS011;59230;54.164;-3.124;2023-11-21T06:44:56;1.60;;;0.60;;
47009;SDS011;59230;54.164;-3.124;2023-11-21T06:47:30;5.65;;;0.88;;
47009;SDS011;59230;54.164;-3.124;2023-11-21T06:49:58;4.35;;;0.60;;
47009;SDS011;59230;54.164;-3.124;2023-11-21T06:52:29;1.88;;;0.63;;
47009;SDS011;59230;54.164;-3.124;2023-11-21T06:54:55;3.75;;;0.80;;
47009;SDS011;59230;54.164;-3.124;2023-11-21T06:57:22;5.28;;;0.90;;
47009;SDS011;59230;54.164;-3.124;2023-11-21T06:59:50;2.08;;;0.70;;
47009;SDS011;59230;54.164;-3.124;2023-11-21T07:02:23;2.58;;;0.82;;
47009;SDS011;59230;54.164;-3.124;2023-11-21T07:04:49;5.13;;;0.90;;
47009;SDS011;59230;54.164;-3.124;2023-11-21T07:07:17;2.97;;;0.65;;
47009;SDS011;59230;54.164;-3.124;2023-11-21T07:09:44;4.28;;;0.88;;
47009;SDS011;59230;54.164;-3.124;2023-11-21T07:12:12;2.45;;;0.90;;
47009;SDS011;59230;54.164;-3.124;2023-11-21T07:14:41;3.35;;;0.80;;
47009;SDS011;59230;54.164;-3.124;2023-11-21T07:17:11;4.55;;;0.80;;
47009;SDS011;59230;54.164;-3.124;2023-11-21T07:19:38;11.20;;;0.98;;
47009;SDS011;59230;54.164;-3.124;2023-11-21T07:22:06;3.10;;;0.93;;
47009;SDS011;59230;54.164;-3.124;2023-11-21T07:24:33;3.28;;;0.93;;
47009;SDS011;59230;54.164;-3.124;2023-11-21T07:26:59;4.43;;;0.75;;
47009;SDS011;59230;54.164;-3.124;2023-11-21T07:29:26;6.20;;;1.58;;
47009;SDS011;59230;54.164;-3.124;2023-11-21T07:31:55;2.95;;;1.08;;
47009;SDS011;59230;54.164;-3.124;2023-11-21T07:34:22;4.28;;;1.17;;
47009;SDS011;59230;54.164;-3.124;2023-11-21T07:36:47;5.93;;;0.90;;
47009;SDS011;59230;54.164;-3.124;2023-11-21T07:39:13;5.43;;;0.80;;
47009;SDS011;59230;54.164;-3.124;2023-11-21T07:41:41;3.50;;;1.10;;
47009;SDS011;59230;54.164;-3.124;2023-11-21T07:44:15;4.47;;;1.00;;
47009;SDS011;59230;54.164;-3.124;2023-11-21T07:46:43;4.13;;;0.70;;
47009;SDS011;59230;54.164;-3.124;2023-11-21T07:49:12;2.00;;;0.68;;
47009;SDS011;59230;54.164;-3.124;2023-11-21T07:51:47;2.92;;;0.70;;
47009;SDS011;59230;54.164;-3.124;2023-11-21T07:54:13;1.75;;;0.60;;
47009;SDS011;59230;54.164;-3.124;2023-11-21T07:56:42;3.95;;;0.73;;
47009;SDS011;59230;54.164;-3.124;2023-11-21T07:59:10;2.88;;;0.68;;
47009;SDS011;59230;54.164;-3.124;2023-11-21T08:01:38;2.58;;;0.60;;
47009;SDS011;59230;54.164;-3.124;2023-11-21T08:04:09;0.63;;;0.50;;
47009;SDS011;59230;54.164;-3.124;2023-11-21T08:06:35;3.65;;;1.20;;
47009;SDS011;59230;54.164;-3.124;2023-11-21T08:09:01;2.40;;;0.82;;
47009;SDS011;59230;54.164;-3.124;2023-11-21T08:11:27;3.65;;;0.85;;
47009;SDS011;59230;54.164;-3.124;2023-11-21T08:13:56;2.47;;;0.80;;
47009;SDS011;59230;54.164;-3.124;2023-11-21T08:16:23;1.70;;;0.55;;
47009;SDS011;59230;54.164;-3.124;2023-11-21T08:18:50;1.15;;;0.50;;
47009;SDS011;59230;54.164;-3.124;2023-11-21T08:21:16;3.67;;;0.80;;
47009;SDS011;59230;54.164;-3.124;2023-11-21T08:23:44;0.55;;;0.43;;
47009;SDS011;59230;54.164;-3.124;2023-11-21T08:26:09;2.40;;;0.63;;
47009;SDS011;59230;54.164;-3.124;2023-11-21T08:28:37;1.50;;;0.50;;
47009;SDS011;59230;54.164;-3.124;2023-11-21T08:31:03;2.63;;;0.52;;
47009;SDS011;59230;54.164;-3.124;2023-11-21T08:33:30;2.72;;;1.00;;
47009;SDS011;59230;54.164;-3.124;2023-11-21T08:35:55;2.13;;;0.50;;
47009;SDS011;59230;54.164;-3.124;2023-11-21T08:38:23;0.75;;;0.52;;
47009;SDS011;59230;54.164;-3.124;2023-11-21T08:40:49;2.15;;;0.60;;
47009;SDS011;59230;54.164;-3.124;2023-11-21T08:43:18;2.00;;;0.60;;
47009;SDS011;59230;54.164;-3.124;2023-11-21T08:45:46;4.75;;;0.50;;
47009;SDS011;59230;54.164;-3.124;2023-11-21T08:48:13;1.05;;;0.60;;
47009;SDS011;59230;54.164;-3.124;2023-11-21T08:50:41;2.25;;;0.57;;
47009;SDS011;59230;54.164;-3.124;2023-11-21T08:53:08;1.10;;;0.50;;
47009;SDS011;59230;54.164;-3.124;2023-11-21T08:55:34;1.88;;;0.57;;
47009;SDS011;59230;54.164;-3.124;2023-11-21T08:58:03;1.35;;;0.50;;
47009;SDS011;59230;54.164;-3.124;2023-11-21T09:00:35;1.10;;;0.60;;
47009;SDS011;59230;54.164;-3.124;2023-11-21T09:03:03;0.93;;;0.57;;
47009;SDS011;59230;54.164;-3.124;2023-11-21T09:05:37;2.75;;;0.68;;
47009;SDS011;59230;54.164;-3.124;2023-11-21T09:08:07;1.45;;;0.65;;
47009;SDS011;59230;54.164;-3.124;2023-11-21T09:10:35;6.07;;;0.88;;
47009;SDS011;59230;54.164;-3.124;2023-11-21T09:13:08;1.73;;;0.80;;
47009;SDS011;59230;54.164;-3.124;2023-11-21T09:15:36;3.47;;;0.70;;
47009;SDS011;59230;54.164;-3.124;2023-11-21T09:18:03;0.98;;;0.55;;
47009;SDS011;59230;54.164;-3.124;2023-11-21T09:20:29;4.47;;;0.88;;
47009;SDS011;59230;54.164;-3.124;2023-11-21T09:22:55;2.33;;;1.10;;
47009;SDS011;59230;54.164;-3.124;2023-11-21T09:25:21;2.28;;;1.00;;
47009;SDS011;59230;54.164;-3.124;2023-11-21T09:27:48;5.22;;;1.05;;
47009;SDS011;59230;54.164;-3.124;2023-11-21T09:30:15;2.88;;;0.88;;
47009;SDS011;59230;54.164;-3.124;2023-11-21T09:32:43;1.55;;;0.80;;
47009;SDS011;59230;54.164;-3.124;2023-11-21T09:35:10;2.15;;;0.80;;
47009;SDS011;59230;54.164;-3.124;2023-11-21T09:37:40;2.78;;;0.93;;
47009;SDS011;59230;54.164;-3.124;2023-11-21T09:40:06;1.67;;;0.90;;
47009;SDS011;59230;54.164;-3.124;2023-11-21T09:42:49;3.20;;;0.90;;
47009;SDS011;59230;54.164;-3.124;2023-11-21T09:47:56;3.28;;;1.05;;
47009;SDS011;59230;54.164;-3.124;2023-11-21T09:50:23;5.88;;;1.38;;
47009;SDS011;59230;54.164;-3.124;2023-11-21T09:55:38;1.95;;;0.95;;
47009;SDS011;59230;54.164;-3.124;2023-11-21T09:58:10;4.10;;;0.90;;
47009;SDS011;59230;54.164;-3.124;2023-11-21T10:00:44;5.15;;;0.93;;
47009;SDS011;59230;54.164;-3.124;2023-11-21T10:03:13;6.85;;;1.17;;
47009;SDS011;59230;54.164;-3.124;2023-11-21T10:05:45;2.47;;;1.27;;
47009;SDS011;59230;54.164;-3.124;2023-11-21T10:08:13;3.42;;;0.95;;
47009;SDS011;59230;54.164;-3.124;2023-11-21T10:10:44;3.95;;;0.85;;
47009;SDS011;59230;54.164;-3.124;2023-11-21T10:13:14;4.63;;;1.35;;
47009;SDS011;59230;54.164;-3.124;2023-11-21T10:15:44;2.78;;;0.70;;
47009;SDS011;59230;54.164;-3.124;2023-11-21T10:18:16;7.50;;;0.82;;
47009;SDS011;59230;54.164;-3.124;2023-11-21T10:20:43;4.07;;;0.80;;
47009;SDS011;59230;54.164;-3.124;2023-11-21T10:23:14;4.90;;;0.85;;
47009;SDS011;59230;54.164;-3.124;2023-11-21T10:25:47;4.15;;;0.80;;
47009;SDS011;59230;54.164;-3.124;2023-11-21T10:28:14;3.42;;;0.73;;
47009;SDS011;59230;54.164;-3.124;2023-11-21T10:30:42;3.75;;;0.90;;
47009;SDS011;59230;54.164;-3.124;2023-11-21T10:33:10;9.23;;;1.88;;
47009;SDS011;59230;54.164;-3.124;2023-11-21T10:35:46;7.85;;;3.90;;
47009;SDS011;59230;54.164;-3.124;2023-11-21T10:38:22;8.40;;;4.30;;
47009;SDS011;59230;54.164;-3.124;2023-11-21T10:40:51;11.45;;;5.18;;
47009;SDS011;59230;54.164;-3.124;2023-11-21T10:43:24;19.73;;;6.45;;
47009;SDS011;59230;54.164;-3.124;2023-11-21T10:45:51;8.90;;;3.85;;
47009;SDS011;59230;54.164;-3.124;2023-11-21T10:48:19;10.15;;;4.65;;
47009;SDS011;59230;54.164;-3.124;2023-11-21T10:50:49;6.22;;;2.17;;
47009;SDS011;59230;54.164;-3.124;2023-11-21T10:53:18;2.78;;;1.15;;
47009;SDS011;59230;54.164;-3.124;2023-11-21T10:55:46;3.75;;;1.08;;
47009;SDS011;59230;54.164;-3.124;2023-11-21T10:58:15;3.30;;;0.52;;
47009;SDS011;59230;54.164;-3.124;2023-11-21T11:00:41;0.55;;;0.55;;
47009;SDS011;59230;54.164;-3.124;2023-11-21T11:03:13;3.70;;;0.80;;
47009;SDS011;59230;54.164;-3.124;2023-11-21T11:05:43;1.48;;;0.70;;
47009;SDS011;59230;54.164;-3.124;2023-11-21T11:08:18;2.80;;;0.70;;
47009;SDS011;59230;54.164;-3.124;2023-11-21T11:10:45;4.43;;;0.95;;
47009;SDS011;59230;54.164;-3.124;2023-11-21T11:13:15;10.23;;;1.13;;
47009;SDS011;59230;54.164;-3.124;2023-11-21T11:15:47;4.28;;;1.08;;
47009;SDS011;59230;54.164;-3.124;2023-11-21T11:18:15;4.82;;;0.70;;
47009;SDS011;59230;54.164;-3.124;2023-11-21T11:20:43;3.33;;;0.70;;
47009;SDS011;59230;54.164;-3.124;2023-11-21T11:23:25;6.45;;;0.90;;
47009;SDS011;59230;54.164;-3.124;2023-11-21T11:29:03;4.13;;;0.93;;
47009;SDS011;59230;54.164;-3.124;2023-11-21T11:34:47;4.68;;;1.00;;
47009;SDS011;59230;54.164;-3.124;2023-11-21T11:37:18;3.47;;;0.95;;
47009;SDS011;59230;54.164;-3.124;2023-11-21T11:39:47;3.97;;;0.90;;
47009;SDS011;59230;54.164;-3.124;2023-11-21T11:42:18;4.10;;;0.90;;
47009;SDS011;59230;54.164;-3.124;2023-11-21T11:47:28;3.00;;;0.70;;
47009;SDS011;59230;54.164;-3.124;2023-11-21T11:52:50;1.40;;;0.70;;
47009;SDS011;59230;54.164;-3.124;2023-11-21T11:55:19;2.92;;;0.82;;
47009;SDS011;59230;54.164;-3.124;2023-11-21T11:57:50;7.85;;;0.93;;
47009;SDS011;59230;54.164;-3.124;2023-11-21T12:00:22;4.32;;;1.00;;
47009;SDS011;59230;54.164;-3.124;2023-11-21T12:05:49;3.03;;;0.90;;
47009;SDS011;59230;54.164;-3.124;2023-11-21T12:08:20;2.22;;;0.70;;
47009;SDS011;59230;54.164;-3.124;2023-11-21T12:10:47;4.68;;;0.73;;
47009;SDS011;59230;54.164;-3.124;2023-11-21T12:13:18;4.72;;;0.88;;
47009;SDS011;59230;54.164;-3.124;2023-11-21T12:15:44;6.20;;;1.15;;
47009;SDS011;59230;54.164;-3.124;2023-11-21T12:18:12;2.45;;;0.90;;
47009;SDS011;59230;54.164;-3.124;2023-11-21T12:20:40;2.67;;;0.80;;
47009;SDS011;59230;54.164;-3.124;2023-11-21T12:23:09;4.63;;;0.80;;
47009;SDS011;59230;54.164;-3.124;2023-11-21T12:25:36;4.55;;;0.80;;
47009;SDS011;59230;54.164;-3.124;2023-11-21T12:28:02;6.22;;;0.90;;
47009;SDS011;59230;54.164;-3.124;2023-11-21T12:30:30;8.68;;;1.20;;
47009;SDS011;59230;54.164;-3.124;2023-11-21T12:33:01;9.20;;;1.10;;
47009;SDS011;59230;54.164;-3.124;2023-11-21T12:35:33;4.47;;;1.13;;
47009;SDS011;59230;54.164;-3.124;2023-11-21T12:38:04;4.22;;;0.93;;
47009;SDS011;59230;54.164;-3.124;2023-11-21T12:40:35;2.45;;;0.90;;
47009;SDS011;59230;54.164;-3.124;2023-11-21T12:43:01;5.72;;;0.85;;
47009;SDS011;59230;54.164;-3.124;2023-11-21T12:45:33;7.28;;;3.72;;
47009;SDS011;59230;54.164;-3.124;2023-11-21T12:48:01;12.25;;;7.80;;
47009;SDS011;59230;54.164;-3.124;2023-11-21T12:53:06;43.10;;;23.92;;
47009;SDS011;59230;54.164;-3.124;2023-11-21T12:55:44;13.50;;;6.30;;
47009;SDS011;59230;54.164;-3.124;2023-11-21T12:58:19;7.00;;;2.25;;
47009;SDS011;59230;54.164;-3.124;2023-11-21T13:00:51;8.35;;;1.00;;
47009;SDS011;59230;54.164;-3.124;2023-11-21T13:03:20;4.28;;;1.63;;
47009;SDS011;59230;54.164;-3.124;2023-11-21T13:05:51;14.27;;;4.50;;
47009;SDS011;59230;54.164;-3.124;2023-11-21T13:08:24;3.83;;;1.60;;
47009;SDS011;59230;54.164;-3.124;2023-11-21T13:10:56;2.88;;;1.48;;
47009;SDS011;59230;54.164;-3.124;2023-11-21T13:13:23;1.83;;;0.60;;
47009;SDS011;59230;54.164;-3.124;2023-11-21T13:15:55;3.05;;;1.70;;
47009;SDS011;59230;54.164;-3.124;2023-11-21T13:18:34;2.35;;;1.00;;
47009;SDS011;59230;54.164;-3.124;2023-11-21T13:21:01;8.27;;;3.63;;
47009;SDS011;59230;54.164;-3.124;2023-11-21T13:23:43;17.00;;;7.90;;
47009;SDS011;59230;54.164;-3.124;2023-11-21T13:26:12;18.73;;;9.48;;
47009;SDS011;59230;54.164;-3.124;2023-11-21T13:28:40;16.42;;;7.55;;
47009;SDS011;59230;54.164;-3.124;2023-11-21T13:31:11;13.48;;;4.93;;
47009;SDS011;59230;54.164;-3.124;2023-11-21T13:33:52;7.18;;;2.97;;
47009;SDS011;59230;54.164;-3.124;2023-11-21T13:36:23;4.57;;;1.33;;
47009;SDS011;59230;54.164;-3.124;2023-11-21T13:38:51;3.00;;;0.82;;
47009;SDS011;59230;54.164;-3.124;2023-11-21T13:41:26;2.00;;;0.70;;
47009;SDS011;59230;54.164;-3.124;2023-11-21T13:43:57;2.25;;;0.60;;
47009;SDS011;59230;54.164;-3.124;2023-11-21T13:46:34;6.10;;;0.70;;
47009;SDS011;59230;54.164;-3.124;2023-11-21T13:49:06;3.28;;;1.10;;
47009;SDS011;59230;54.164;-3.124;2023-11-21T13:51:36;5.60;;;0.60;;
47009;SDS011;59230;54.164;-3.124;2023-11-21T13:54:14;4.75;;;1.27;;
47009;SDS011;59230;54.164;-3.124;2023-11-21T13:56:41;2.30;;;1.13;;
47009;SDS011;59230;54.164;-3.124;2023-11-21T13:59:12;3.63;;;0.90;;
47009;SDS011;59230;54.164;-3.124;2023-11-21T14:01:52;3.83;;;0.93;;
47009;SDS011;59230;54.164;-3.124;2023-11-21T14:04:24;3.47;;;0.93;;
47009;SDS011;59230;54.164;-3.124;2023-11-21T14:09:53;5.55;;;1.05;;
47009;SDS011;59230;54.164;-3.124;2023-11-21T14:12:22;6.30;;;1.15;;
47009;SDS011;59230;54.164;-3.124;2023-11-21T14:14:49;7.85;;;1.20;;
47009;SDS011;59230;54.164;-3.124;2023-11-21T14:17:14;3.92;;;0.77;;
47009;SDS011;59230;54.164;-3.124;2023-11-21T14:19:40;2.30;;;0.90;;
47009;SDS011;59230;54.164;-3.124;2023-11-21T14:22:11;10.27;;;0.85;;
47009;SDS011;59230;54.164;-3.124;2023-11-21T14:24:38;3.72;;;0.70;;
47009;SDS011;59230;54.164;-3.124;2023-11-21T14:27:20;4.28;;;1.00;;
47009;SDS011;59230;54.164;-3.124;2023-11-21T14:29:45;4.55;;;1.15;;
47009;SDS011;59230;54.164;-3.124;2023-11-21T14:32:12;4.45;;;1.00;;
47009;SDS011;59230;54.164;-3.124;2023-11-21T14:34:42;5.10;;;0.80;;
47009;SDS011;59230;54.164;-3.124;2023-11-21T14:37:13;5.05;;;1.00;;
47009;SDS011;59230;54.164;-3.124;2023-11-21T14:39:39;6.00;;;1.02;;
47009;SDS011;59230;54.164;-3.124;2023-11-21T14:42:10;3.28;;;0.90;;
47009;SDS011;59230;54.164;-3.124;2023-11-21T14:44:39;3.22;;;1.13;;
47009;SDS011;59230;54.164;-3.124;2023-11-21T14:47:09;3.38;;;0.93;;
47009;SDS011;59230;54.164;-3.124;2023-11-21T14:49:42;6.07;;;1.30;;
47009;SDS011;59230;54.164;-3.124;2023-11-21T14:52:23;5.72;;;1.00;;
47009;SDS011;59230;54.164;-3.124;2023-11-21T14:55:03;3.35;;;0.90;;
47009;SDS011;59230;54.164;-3.124;2023-11-21T14:57:57;7.00;;;1.20;;
47009;SDS011;59230;54.164;-3.124;2023-11-21T15:00:32;2.65;;;0.70;;
47009;SDS011;59230;54.164;-3.124;2023-11-21T15:03:11;1.58;;;0.77;;
47009;SDS011;59230;54.164;-3.124;2023-11-21T15:06:03;6.13;;;1.00;;
47009;SDS011;59230;54.164;-3.124;2023-11-21T15:08:54;1.60;;;0.60;;
47009;SDS011;59230;54.164;-3.124;2023-11-21T15:11:31;4.95;;;1.10;;